createdAt,value
2017-06-15T00:00:21.784Z,72.00
2017-06-15T00:02:49.984Z,72.00
2017-06-15T00:05:18.148Z,72.00
2017-06-15T00:07:46.302Z,72.00
2017-06-15T00:10:14.472Z,72.20
2017-06-15T00:12:42.659Z,72.20
2017-06-15T00:15:10.829Z,72.00
2017-06-15T00:17:39.028Z,71.90
2017-06-15T00:20:07.205Z,71.60
2017-06-15T00:22:35.369Z,71.60
2017-06-15T00:25:03.546Z,71.50
2017-06-15T00:27:31.709Z,71.50
2017-06-15T00:29:59.866Z,71.90
2017-06-15T00:32:28.041Z,72.00
2017-06-15T00:34:56.209Z,72.10
2017-06-15T00:37:24.361Z,72.20
2017-06-15T00:39:53.305Z,72.40
2017-06-15T00:42:21.457Z,72.20
2017-06-15T00:44:49.603Z,72.80
2017-06-15T00:47:18.549Z,73.00
2017-06-15T00:49:46.719Z,73.00
2017-06-15T00:52:14.884Z,73.00
2017-06-15T00:54:43.052Z,73.90
2017-06-15T00:57:11.217Z,73.10
2017-06-15T00:59:39.376Z,72.90
2017-06-15T01:02:08.333Z,72.80
2017-06-15T01:04:36.478Z,72.80
2017-06-15T01:07:04.621Z,72.90
2017-06-15T01:09:33.581Z,72.90
2017-06-15T01:12:01.747Z,72.80
2017-06-15T01:14:29.903Z,73.10
2017-06-15T01:16:58.101Z,73.00
2017-06-15T01:19:26.254Z,73.20
2017-06-15T01:21:54.426Z,73.20
2017-06-15T01:24:25.974Z,73.40
2017-06-15T01:26:54.144Z,73.60
2017-06-15T01:29:22.298Z,73.80
2017-06-15T01:31:50.492Z,73.70
2017-06-15T01:34:18.633Z,73.60
2017-06-15T01:36:47.553Z,73.50
2017-06-15T01:39:15.752Z,73.50
2017-06-15T01:41:43.959Z,74.00
2017-06-15T01:44:12.140Z,74.00
2017-06-15T01:46:40.319Z,73.90
2017-06-15T01:49:09.252Z,74.10
2017-06-15T01:51:37.399Z,74.10
2017-06-15T01:54:05.574Z,73.90
2017-06-15T01:56:34.517Z,74.50
2017-06-15T01:59:02.662Z,74.50
2017-06-15T02:01:30.852Z,74.80
2017-06-15T02:03:59.023Z,75.40
2017-06-15T02:06:27.193Z,75.60
2017-06-15T02:08:55.370Z,75.70
2017-06-15T02:11:23.549Z,75.70
2017-06-15T02:13:51.724Z,76.50
2017-06-15T02:16:19.914Z,76.00
2017-06-15T02:18:48.088Z,76.20
2017-06-15T02:21:16.238Z,76.40
2017-06-15T02:23:44.414Z,76.70
2017-06-15T02:26:12.597Z,76.40
2017-06-15T02:28:40.770Z,76.10
2017-06-15T02:31:09.000Z,76.60
2017-06-15T02:33:37.941Z,77.10
2017-06-15T02:36:06.099Z,77.10
2017-06-15T02:38:34.298Z,77.20
2017-06-15T02:41:02.455Z,77.40
2017-06-15T02:43:30.634Z,77.60
2017-06-15T02:45:59.255Z,77.50
2017-06-15T02:48:27.404Z,77.60
2017-06-15T02:50:55.577Z,77.80
2017-06-15T02:53:23.772Z,77.60
2017-06-15T02:55:51.926Z,77.30
2017-06-15T02:58:20.081Z,76.90
2017-06-15T03:00:48.281Z,76.90
2017-06-15T03:03:16.469Z,76.70
2017-06-15T03:05:44.630Z,76.50
2017-06-15T03:08:12.836Z,76.30
2017-06-15T03:10:40.989Z,76.30
2017-06-15T03:13:09.176Z,76.30
2017-06-15T03:15:37.738Z,76.10
2017-06-15T03:18:05.905Z,76.20
2017-06-15T03:20:34.077Z,76.30
2017-06-15T03:23:02.284Z,76.70
2017-06-15T03:25:30.437Z,76.80
2017-06-15T03:27:58.587Z,76.70
2017-06-15T03:30:26.793Z,76.90
2017-06-15T03:32:54.978Z,76.80
2017-06-15T03:35:23.149Z,77.20
2017-06-15T03:37:51.326Z,77.00
2017-06-15T03:40:19.484Z,77.20
2017-06-15T03:42:47.631Z,77.30
2017-06-15T03:45:15.845Z,77.50
2017-06-15T03:47:44.011Z,77.40
2017-06-15T03:50:12.168Z,77.60
2017-06-15T03:52:40.371Z,77.40
2017-06-15T03:55:08.545Z,77.20
2017-06-15T03:57:36.704Z,76.80
2017-06-15T04:00:04.884Z,76.70
2017-06-15T04:02:33.053Z,76.60
2017-06-15T04:05:01.197Z,76.50
2017-06-15T04:07:29.385Z,76.40
2017-06-15T04:09:57.553Z,76.90
2017-06-15T04:12:25.722Z,76.30
2017-06-15T04:14:53.895Z,75.90
2017-06-15T04:17:22.064Z,75.80
2017-06-15T04:19:50.210Z,76.10
2017-06-15T04:22:19.167Z,75.60
2017-06-15T04:24:47.324Z,75.60
2017-06-15T04:27:15.491Z,75.50
2017-06-15T04:29:43.701Z,75.10
2017-06-15T04:32:11.846Z,75.40
2017-06-15T04:34:40.013Z,75.10
2017-06-15T04:37:08.185Z,75.00
2017-06-15T04:39:36.354Z,75.30
2017-06-15T04:42:04.513Z,74.90
2017-06-15T04:44:32.711Z,74.60
2017-06-15T04:47:00.881Z,74.50
2017-06-15T04:49:29.049Z,74.90
2017-06-15T04:51:57.562Z,75.40
2017-06-15T04:54:25.731Z,74.50
2017-06-15T04:56:53.893Z,74.20
2017-06-15T04:59:22.080Z,73.30
2017-06-15T05:01:50.231Z,73.10
2017-06-15T05:04:18.389Z,73.20
2017-06-15T05:06:47.329Z,73.50
2017-06-15T05:09:15.474Z,73.40
2017-06-15T05:11:43.622Z,73.20
2017-06-15T05:14:12.584Z,72.10
2017-06-15T05:16:40.787Z,72.00
2017-06-15T05:19:09.722Z,71.20
2017-06-15T05:21:37.906Z,71.20
2017-06-15T05:24:06.072Z,71.70
2017-06-15T05:26:34.850Z,71.70
2017-06-15T05:29:03.029Z,71.90
2017-06-15T05:31:31.185Z,71.70
2017-06-15T05:33:59.338Z,71.60
2017-06-15T05:36:27.527Z,71.00
2017-06-15T05:38:56.442Z,70.90
2017-06-15T05:41:25.377Z,70.80
2017-06-15T05:43:53.573Z,70.80
2017-06-15T05:46:21.737Z,70.60
2017-06-15T05:48:49.892Z,70.10
2017-06-15T05:51:18.112Z,69.10
2017-06-15T05:53:46.284Z,69.30
2017-06-15T05:56:15.241Z,69.00
2017-06-15T05:58:43.418Z,68.90
2017-06-15T06:01:11.561Z,69.30
2017-06-15T06:03:39.713Z,69.30
2017-06-15T06:06:07.885Z,68.50
2017-06-15T06:08:36.053Z,67.90
2017-06-15T06:11:04.983Z,67.90
2017-06-15T06:13:33.170Z,67.80
2017-06-15T06:16:01.331Z,67.20
2017-06-15T06:18:29.509Z,67.10
2017-06-15T06:20:57.683Z,67.10
2017-06-15T06:23:25.852Z,66.40
2017-06-15T06:25:54.031Z,66.30
2017-06-15T06:28:22.208Z,66.00
2017-06-15T06:30:50.370Z,65.50
2017-06-15T06:33:18.523Z,64.70
2017-06-15T06:35:46.717Z,64.80
2017-06-15T06:38:14.881Z,63.50
2017-06-15T06:40:43.026Z,64.20
2017-06-15T06:43:11.989Z,62.30
2017-06-15T06:45:40.158Z,62.30
2017-06-15T06:48:08.320Z,62.20
2017-06-15T06:50:36.523Z,61.20
2017-06-15T06:53:05.512Z,60.60
2017-06-15T06:55:33.676Z,60.20
2017-06-15T06:58:01.878Z,59.60
2017-06-15T07:00:30.057Z,59.40
2017-06-15T07:02:58.220Z,59.60
2017-06-15T07:05:26.402Z,59.10
2017-06-15T07:07:54.550Z,58.90
2017-06-15T07:10:22.761Z,59.00
2017-06-15T07:12:51.723Z,58.90
2017-06-15T07:15:19.892Z,58.90
2017-06-15T07:17:48.057Z,58.50
2017-06-15T07:20:16.245Z,57.60
2017-06-15T07:22:44.402Z,58.10
2017-06-15T07:25:12.588Z,57.20
2017-06-15T07:27:40.815Z,58.10
2017-06-15T07:30:09.845Z,56.10
2017-06-15T07:32:37.995Z,56.10
2017-06-15T07:35:06.172Z,55.70
2017-06-15T07:37:34.321Z,55.60
2017-06-15T07:40:03.238Z,54.80
2017-06-15T07:42:31.409Z,54.80
2017-06-15T07:44:59.583Z,55.80
2017-06-15T07:47:27.737Z,55.60
2017-06-15T07:49:56.679Z,54.10
2017-06-15T07:52:24.849Z,54.00
2017-06-15T07:54:53.021Z,53.10
2017-06-15T07:57:21.233Z,52.80
2017-06-15T07:59:49.387Z,53.10
2017-06-15T08:02:17.539Z,52.50
2017-06-15T08:04:45.733Z,52.90
2017-06-15T08:07:13.909Z,52.30
2017-06-15T08:09:42.063Z,51.60
2017-06-15T08:12:10.275Z,50.50
2017-06-15T08:14:38.452Z,49.30
2017-06-15T08:17:06.609Z,48.70
2017-06-15T08:19:34.789Z,47.70
2017-06-15T08:22:02.956Z,46.60
2017-06-15T08:24:31.137Z,46.20
2017-06-15T08:26:59.343Z,45.40
2017-06-15T08:29:28.398Z,42.90
2017-06-15T08:31:56.583Z,42.90
2017-06-15T08:34:24.768Z,42.90
2017-06-15T08:36:52.944Z,44.00
2017-06-15T08:39:21.105Z,43.30
2017-06-15T08:41:49.301Z,41.60
2017-06-15T08:44:17.473Z,40.90
2017-06-15T08:46:45.643Z,40.90
2017-06-15T08:49:13.845Z,41.10
2017-06-15T08:51:42.002Z,41.70
2017-06-15T08:54:10.176Z,40.10
2017-06-15T08:56:38.382Z,37.70
2017-06-15T08:59:06.533Z,36.60
2017-06-15T09:01:35.473Z,33.60
2017-06-15T09:04:03.654Z,33.60
2017-06-15T09:06:31.821Z,35.70
2017-06-15T09:08:59.992Z,36.70
2017-06-15T09:11:28.178Z,35.60
2017-06-15T09:13:56.349Z,34.40
2017-06-15T09:16:24.493Z,34.40
2017-06-15T09:18:52.686Z,33.80
2017-06-15T09:21:20.834Z,33.50
2017-06-15T09:23:49.004Z,33.50
2017-06-15T09:26:17.204Z,34.10
2017-06-15T09:28:45.365Z,34.40
2017-06-15T09:31:13.581Z,34.50
2017-06-15T09:33:41.777Z,35.20
2017-06-15T09:36:09.934Z,35.60
2017-06-15T09:38:38.084Z,35.40
2017-06-15T09:41:06.280Z,34.10
2017-06-15T09:43:34.456Z,34.60
2017-06-15T09:46:02.621Z,35.20
2017-06-15T09:48:30.799Z,34.00
2017-06-15T09:50:58.970Z,33.40
2017-06-15T09:53:27.140Z,34.60
2017-06-15T09:55:55.345Z,34.30
2017-06-15T09:58:24.439Z,34.50
2017-06-15T10:00:52.594Z,34.40
2017-06-15T10:03:20.793Z,33.40
2017-06-15T10:05:48.960Z,33.50
2017-06-15T10:08:17.113Z,32.60
2017-06-15T10:10:45.305Z,30.70
2017-06-15T10:13:13.489Z,30.10
2017-06-15T10:15:41.657Z,29.30
2017-06-15T10:18:09.848Z,27.40
2017-06-15T10:20:38.002Z,27.60
2017-06-15T10:23:06.173Z,26.30
2017-06-15T10:25:34.350Z,25.40
2017-06-15T10:28:02.514Z,26.30
2017-06-15T10:30:30.663Z,26.80
2017-06-15T10:32:58.968Z,27.90
2017-06-15T10:35:27.118Z,28.50
2017-06-15T10:37:55.284Z,28.30
2017-06-15T10:40:23.597Z,28.40
2017-06-15T10:42:51.746Z,29.90
2017-06-15T10:45:19.894Z,31.00
2017-06-15T10:47:48.843Z,29.70
2017-06-15T10:50:17.013Z,29.70
2017-06-15T10:52:45.202Z,29.90
2017-06-15T10:55:13.391Z,30.30
2017-06-15T10:57:41.545Z,30.60
2017-06-15T11:00:09.720Z,29.60
2017-06-15T11:02:37.896Z,29.60
2017-06-15T11:05:06.067Z,28.30
2017-06-15T11:07:34.245Z,28.20
2017-06-15T11:10:02.442Z,26.90
2017-06-15T11:12:30.608Z,27.00
2017-06-15T11:14:58.761Z,28.10
2017-06-15T11:17:26.958Z,29.10
2017-06-15T11:19:55.120Z,29.10
2017-06-15T11:22:23.273Z,29.10
2017-06-15T11:24:51.463Z,29.30
2017-06-15T11:27:19.613Z,29.60
2017-06-15T11:29:47.785Z,29.30
2017-06-15T11:32:16.508Z,29.50
2017-06-15T11:34:44.693Z,30.80
2017-06-15T11:37:12.869Z,33.00
2017-06-15T11:39:41.050Z,33.60
2017-06-15T11:42:09.221Z,33.60
2017-06-15T11:44:37.374Z,34.30
2017-06-15T11:47:05.558Z,35.50
2017-06-15T11:49:33.718Z,35.70
2017-06-15T11:52:01.862Z,35.90
2017-06-15T11:54:30.061Z,36.50
2017-06-15T11:56:58.295Z,36.80
2017-06-15T11:59:26.471Z,36.50
2017-06-15T12:01:54.680Z,37.10
2017-06-15T12:04:22.837Z,36.70
2017-06-15T12:06:50.994Z,36.20
2017-06-15T12:09:19.211Z,36.50
2017-06-15T12:11:47.391Z,37.20
2017-06-15T12:14:15.547Z,37.50
2017-06-15T12:16:43.760Z,37.60
2017-06-15T12:19:11.936Z,36.80
2017-06-15T12:21:40.089Z,38.20
2017-06-15T12:24:08.269Z,36.50
2017-06-15T12:26:36.434Z,36.70
2017-06-15T12:29:04.590Z,37.00
2017-06-15T12:31:32.797Z,36.40
2017-06-15T12:34:00.966Z,36.90
2017-06-15T12:36:29.151Z,36.10
2017-06-15T12:38:57.362Z,36.70
2017-06-15T12:41:26.317Z,37.40
2017-06-15T12:43:54.495Z,37.40
2017-06-15T12:46:22.709Z,37.20
2017-06-15T12:48:50.865Z,36.30
2017-06-15T12:51:19.793Z,37.40
2017-06-15T12:53:47.975Z,37.30
2017-06-15T12:56:16.146Z,37.10
2017-06-15T12:58:44.312Z,37.00
2017-06-15T13:01:12.512Z,37.60
2017-06-15T13:03:40.669Z,37.80
2017-06-15T13:06:08.861Z,39.10
2017-06-15T13:08:37.054Z,39.50
2017-06-15T13:11:05.230Z,39.70
2017-06-15T13:13:33.419Z,38.90
2017-06-15T13:16:01.634Z,39.30
2017-06-15T13:18:29.785Z,40.00
2017-06-15T13:20:57.968Z,40.10
2017-06-15T13:23:26.145Z,39.70
2017-06-15T13:25:54.322Z,40.40
2017-06-15T13:28:22.476Z,40.90
2017-06-15T13:30:50.681Z,40.90
2017-06-15T13:33:18.841Z,40.60
2017-06-15T13:35:47.017Z,41.00
2017-06-15T13:38:15.201Z,41.50
2017-06-15T13:40:43.350Z,41.30
2017-06-15T13:43:11.520Z,41.20
2017-06-15T13:45:41.470Z,42.40
2017-06-15T13:48:09.625Z,42.30
2017-06-15T13:50:37.777Z,42.40
2017-06-15T13:53:06.726Z,42.10
2017-06-15T13:55:34.904Z,42.10
2017-06-15T13:58:03.061Z,42.40
2017-06-15T14:00:31.242Z,41.40
2017-06-15T14:02:59.395Z,41.30
2017-06-15T14:05:27.550Z,40.80
2017-06-15T14:07:55.747Z,40.60
2017-06-15T14:10:23.902Z,40.80
2017-06-15T14:12:52.053Z,40.10
2017-06-15T14:15:20.273Z,40.10
2017-06-15T14:17:48.425Z,40.30
2017-06-15T14:20:17.354Z,39.50
2017-06-15T14:22:45.566Z,39.80
2017-06-15T14:25:13.744Z,39.40
2017-06-15T14:27:41.912Z,39.00
2017-06-15T14:30:10.099Z,38.80
2017-06-15T14:32:38.255Z,38.40
2017-06-15T14:35:06.429Z,38.30
2017-06-15T14:37:34.629Z,37.70
2017-06-15T14:40:03.588Z,39.00
2017-06-15T14:42:31.737Z,38.60
2017-06-15T14:44:59.946Z,39.00
2017-06-15T14:47:28.105Z,39.30
2017-06-15T14:49:56.277Z,38.80
2017-06-15T14:52:24.474Z,39.70
2017-06-15T14:54:52.627Z,40.00
2017-06-15T14:57:20.809Z,39.60
2017-06-15T14:59:49.003Z,39.30
2017-06-15T15:02:17.177Z,39.70
2017-06-15T15:04:45.334Z,38.60
2017-06-15T15:07:13.522Z,39.00
2017-06-15T15:09:41.679Z,38.80
2017-06-15T15:12:09.838Z,39.50
2017-06-15T15:14:38.049Z,39.90
2017-06-15T15:17:06.223Z,39.70
2017-06-15T15:19:34.403Z,39.30
2017-06-15T15:22:02.594Z,38.90
2017-06-15T15:24:30.764Z,39.60
2017-06-15T15:26:58.913Z,40.50
2017-06-15T15:29:27.117Z,39.70
2017-06-15T15:31:55.274Z,40.20
2017-06-15T15:34:23.429Z,40.90
2017-06-15T15:36:51.633Z,40.70
2017-06-15T15:39:19.817Z,40.10
2017-06-15T15:41:47.972Z,40.50
2017-06-15T15:44:16.164Z,40.40
2017-06-15T15:46:44.341Z,40.50
2017-06-15T15:49:13.269Z,40.60
2017-06-15T15:51:41.510Z,41.00
2017-06-15T15:54:09.680Z,41.40
2017-06-15T15:56:37.831Z,41.40
2017-06-15T15:59:06.039Z,41.60
2017-06-15T16:01:34.961Z,41.50
2017-06-15T16:04:03.110Z,41.50
2017-06-15T16:06:32.089Z,41.30
2017-06-15T16:09:00.241Z,41.20
2017-06-15T16:11:28.392Z,41.10
2017-06-15T16:13:56.600Z,41.80
2017-06-15T16:16:24.776Z,41.90
2017-06-15T16:18:52.929Z,41.80
2017-06-15T16:21:21.129Z,41.80
2017-06-15T16:23:49.285Z,42.60
2017-06-15T16:26:17.461Z,42.40
2017-06-15T16:28:45.636Z,42.90
2017-06-15T16:31:13.786Z,43.30
2017-06-15T16:33:41.942Z,43.30
2017-06-15T16:36:10.236Z,43.70
2017-06-15T16:38:38.390Z,44.00
2017-06-15T16:41:06.561Z,44.00
2017-06-15T16:43:35.583Z,44.30
2017-06-15T16:46:03.763Z,44.20
2017-06-15T16:48:31.948Z,44.60
2017-06-15T16:51:00.168Z,44.90
2017-06-15T16:53:29.197Z,45.10
2017-06-15T16:55:57.382Z,45.10
2017-06-15T16:58:25.599Z,45.50
2017-06-15T17:00:53.827Z,45.70
2017-06-15T17:03:22.008Z,46.50
2017-06-15T17:05:50.193Z,46.50
2017-06-15T17:08:18.368Z,47.00
2017-06-15T17:10:46.542Z,47.90
2017-06-15T17:13:14.726Z,48.60
2017-06-15T17:15:42.910Z,50.20
2017-06-15T17:18:11.074Z,51.60
2017-06-15T17:20:39.284Z,53.30
2017-06-15T17:23:08.241Z,60.00
2017-06-15T17:25:36.421Z,59.50
2017-06-15T17:28:04.616Z,60.00
2017-06-15T17:30:32.793Z,60.30
2017-06-15T17:33:00.980Z,63.30
2017-06-15T17:35:29.958Z,67.90
2017-06-15T17:37:59.063Z,67.90
2017-06-15T17:40:27.222Z,67.20
2017-06-15T17:42:56.504Z,65.50
2017-06-15T17:45:24.670Z,67.90
2017-06-15T17:47:52.827Z,68.90
2017-06-15T17:50:21.085Z,71.50
2017-06-15T17:52:49.998Z,71.70
2017-06-15T17:55:18.166Z,71.60
2017-06-15T17:57:46.362Z,71.60
2017-06-15T18:00:14.516Z,72.00
2017-06-15T18:02:42.688Z,71.60
2017-06-15T18:05:10.861Z,73.60
2017-06-15T18:07:39.016Z,73.30
2017-06-15T18:10:08.008Z,74.50
2017-06-15T18:12:36.986Z,74.30
2017-06-15T18:15:05.162Z,74.30
2017-06-15T18:17:33.327Z,73.80
2017-06-15T18:20:01.517Z,74.50
2017-06-15T18:22:30.468Z,77.00
2017-06-15T18:24:58.628Z,76.10
2017-06-15T18:27:26.825Z,76.10
2017-06-15T18:29:54.983Z,75.50
2017-06-15T18:32:23.142Z,74.90
2017-06-15T18:34:51.322Z,75.30
2017-06-15T18:37:19.506Z,76.00
2017-06-15T18:39:47.677Z,76.30
2017-06-15T18:42:15.867Z,76.70
2017-06-15T18:44:44.017Z,76.50
2017-06-15T18:47:12.169Z,77.20
2017-06-15T18:49:41.165Z,77.00
2017-06-15T18:52:09.341Z,76.80
2017-06-15T18:54:37.517Z,78.00
2017-06-15T18:57:05.736Z,77.00
2017-06-15T18:59:33.910Z,77.20
2017-06-15T19:02:02.096Z,77.90
2017-06-15T19:04:30.282Z,78.10
2017-06-15T19:06:58.452Z,81.50
2017-06-15T19:09:26.625Z,85.80
2017-06-15T19:11:54.835Z,88.10
2017-06-15T19:14:23.808Z,89.90
2017-06-15T19:16:51.969Z,89.80
2017-06-15T19:19:23.619Z,89.10
2017-06-15T19:21:52.138Z,88.30
2017-06-15T19:24:20.309Z,89.60
2017-06-15T19:26:49.280Z,88.20
2017-06-15T19:29:17.439Z,88.10
2017-06-15T19:31:45.602Z,88.90
2017-06-15T19:34:13.805Z,88.00
2017-06-15T19:36:41.982Z,88.40
2017-06-15T19:39:10.138Z,89.10
2017-06-15T19:41:38.322Z,89.10
2017-06-15T19:44:06.473Z,89.00
2017-06-15T19:46:35.413Z,88.70
2017-06-15T19:49:03.622Z,88.70
2017-06-15T19:51:31.791Z,88.60
2017-06-15T19:53:59.949Z,88.70
2017-06-15T19:56:28.157Z,89.80
2017-06-15T19:58:57.069Z,88.40
2017-06-15T20:01:25.225Z,88.40
2017-06-15T20:03:54.193Z,88.50
2017-06-15T20:06:22.355Z,88.40
2017-06-15T20:08:50.536Z,87.50
2017-06-15T20:11:18.723Z,86.20
2017-06-15T20:13:46.897Z,86.70
2017-06-15T20:16:15.072Z,86.20
2017-06-15T20:18:43.281Z,87.50
2017-06-15T20:21:11.443Z,87.60
2017-06-15T20:23:40.526Z,87.60
2017-06-15T20:26:15.421Z,87.90
2017-06-15T20:28:43.575Z,87.90
2017-06-15T20:31:11.758Z,89.30
2017-06-15T20:33:39.964Z,90.10
2017-06-15T20:36:08.143Z,90.40
2017-06-15T20:38:37.105Z,92.10
2017-06-15T20:41:05.320Z,92.00
2017-06-15T20:43:33.489Z,91.70
2017-06-15T20:46:01.664Z,91.40
2017-06-15T20:48:29.859Z,92.20
2017-06-15T20:50:58.802Z,91.90
2017-06-15T20:53:26.980Z,91.90
2017-06-15T20:55:55.188Z,92.00
2017-06-15T20:58:23.361Z,91.30
2017-06-15T21:00:51.513Z,91.30
2017-06-15T21:03:19.723Z,91.10
2017-06-15T21:05:48.650Z,88.80
2017-06-15T21:08:16.801Z,89.50
2017-06-15T21:10:45.047Z,89.30
2017-06-15T21:13:13.291Z,88.60
2017-06-15T21:15:41.453Z,87.70
2017-06-15T21:18:09.729Z,87.10
2017-06-15T21:20:38.806Z,88.10
2017-06-15T21:23:07.125Z,87.90
2017-06-15T21:25:35.336Z,87.40
2017-06-15T21:28:03.604Z,88.20
2017-06-15T21:30:31.798Z,87.70
2017-06-15T21:33:00.809Z,87.30
2017-06-15T21:35:29.023Z,87.20
2017-06-15T21:37:57.221Z,85.40
2017-06-15T21:40:25.423Z,86.40
2017-06-15T21:42:54.416Z,85.90
2017-06-15T21:45:22.609Z,85.90
2017-06-15T21:47:50.949Z,85.70
2017-06-15T21:50:19.970Z,86.50
2017-06-15T21:52:48.132Z,85.70
2017-06-15T21:55:16.369Z,84.80
2017-06-15T21:57:44.529Z,84.60
2017-06-15T22:00:12.697Z,85.10
2017-06-15T22:02:40.896Z,85.40
2017-06-15T22:05:09.072Z,84.90
2017-06-15T22:07:37.248Z,83.00
2017-06-15T22:10:05.423Z,83.20
2017-06-15T22:12:33.601Z,82.60
2017-06-15T22:15:01.777Z,83.10
2017-06-15T22:17:29.977Z,82.90
2017-06-15T22:19:58.138Z,82.30
2017-06-15T22:22:26.297Z,82.80
2017-06-15T22:24:54.489Z,82.90
2017-06-15T22:27:22.641Z,82.30
2017-06-15T22:29:50.794Z,83.10
2017-06-15T22:32:18.985Z,82.90
2017-06-15T22:34:47.160Z,83.10
2017-06-15T22:37:15.354Z,81.80
2017-06-15T22:39:43.553Z,81.90
2017-06-15T22:42:12.475Z,81.80
2017-06-15T22:44:40.627Z,81.60
2017-06-15T22:47:09.616Z,81.80
2017-06-15T22:49:38.548Z,81.20
2017-06-15T22:52:06.706Z,81.10
2017-06-15T22:54:34.928Z,80.60
2017-06-15T22:57:03.099Z,80.30
2017-06-15T22:59:31.260Z,79.10
2017-06-15T23:01:59.457Z,78.70
2017-06-15T23:04:27.628Z,79.70
2017-06-15T23:06:55.795Z,79.80
2017-06-15T23:09:23.988Z,79.70
2017-06-15T23:11:52.160Z,79.10
2017-06-15T23:14:20.308Z,78.60
2017-06-15T23:16:48.502Z,77.70
2017-06-15T23:19:16.662Z,77.90
2017-06-15T23:21:44.833Z,78.60
2017-06-15T23:24:13.782Z,78.60
2017-06-15T23:26:41.945Z,78.50
2017-06-15T23:29:10.117Z,77.60
2017-06-15T23:31:38.313Z,76.40
2017-06-15T23:34:06.477Z,75.10
2017-06-15T23:36:34.651Z,75.80
2017-06-15T23:39:02.823Z,75.30
2017-06-15T23:41:30.974Z,74.90
2017-06-15T23:43:59.123Z,75.00
2017-06-15T23:46:28.062Z,75.60
2017-06-15T23:48:56.210Z,75.70
2017-06-15T23:51:24.385Z,75.30
2017-06-15T23:53:52.554Z,75.60
2017-06-15T23:56:20.706Z,75.00
2017-06-15T23:58:49.640Z,74.30
